createdAt,value
2023-05-17T00:00:36.070Z,10.70
2023-05-17T00:03:07.236Z,10.70
2023-05-17T00:05:38.392Z,10.60
2023-05-17T00:08:09.787Z,10.60
2023-05-17T00:10:41.228Z,10.70
2023-05-17T00:13:12.292Z,10.60
2023-05-17T00:15:43.319Z,10.60
2023-05-17T00:18:14.467Z,10.60
2023-05-17T00:20:45.704Z,10.50
2023-05-17T00:23:16.743Z,10.60
2023-05-17T00:25:47.930Z,10.60
2023-05-17T00:28:19.088Z,10.70
2023-05-17T00:30:50.132Z,10.60
2023-05-17T00:33:21.173Z,10.70
2023-05-17T00:35:52.257Z,10.50
2023-05-17T00:38:23.257Z,10.50
2023-05-17T00:40:54.357Z,10.50
2023-05-17T00:43:26.296Z,10.50
2023-05-17T00:45:57.448Z,10.40
2023-05-17T00:48:29.854Z,10.40
2023-05-17T00:51:01.554Z,10.30
2023-05-17T00:53:33.896Z,10.50
2023-05-17T00:56:05.610Z,10.40
2023-05-17T00:58:37.044Z,10.30
2023-05-17T01:01:08.224Z,10.30
2023-05-17T01:03:39.544Z,10.40
2023-05-17T01:06:10.702Z,10.30
2023-05-17T01:08:42.075Z,10.30
2023-05-17T01:11:17.500Z,10.30
2023-05-17T01:13:52.728Z,10.30
2023-05-17T01:16:28.680Z,10.30
2023-05-17T01:19:03.751Z,10.30
2023-05-17T01:21:40.609Z,10.30
2023-05-17T01:24:20.953Z,10.30
2023-05-17T01:26:54.490Z,10.20
2023-05-17T01:29:44.863Z,10.20
2023-05-17T01:32:17.281Z,10.20
2023-05-17T01:34:48.396Z,10.20
2023-05-17T01:37:19.296Z,10.20
2023-05-17T01:39:50.897Z,10.20
2023-05-17T01:42:24.714Z,10.10
2023-05-17T01:44:58.929Z,10.10
2023-05-17T01:47:34.376Z,10.10
2023-05-17T01:50:07.908Z,10.10
2023-05-17T01:52:42.235Z,10.10
2023-05-17T01:55:17.298Z,10.10
2023-05-17T01:57:51.426Z,10.10
2023-05-17T02:00:23.935Z,10.00
2023-05-17T02:02:56.180Z,10.00
2023-05-17T02:05:27.373Z,10.00
2023-05-17T02:07:58.835Z,10.00
2023-05-17T02:10:29.868Z,10.00
2023-05-17T02:13:00.936Z,10.00
2023-05-17T02:15:32.846Z,9.90
2023-05-17T02:18:03.983Z,9.90
2023-05-17T02:20:35.053Z,9.90
2023-05-17T02:23:06.223Z,10.00
2023-05-17T02:25:37.136Z,9.90
2023-05-17T02:28:08.612Z,10.00
2023-05-17T02:30:40.992Z,10.00
2023-05-17T02:33:12.167Z,9.90
2023-05-17T02:35:43.184Z,10.00
2023-05-17T02:38:14.188Z,10.00
2023-05-17T02:40:45.071Z,9.90
2023-05-17T02:43:16.207Z,9.90
2023-05-17T02:45:47.360Z,9.90
2023-05-17T02:48:18.398Z,9.80
2023-05-17T02:50:49.422Z,9.80
2023-05-17T02:53:20.442Z,9.80
2023-05-17T02:55:51.676Z,9.80
2023-05-17T02:58:22.691Z,9.80
2023-05-17T03:00:54.325Z,9.70
2023-05-17T03:03:25.662Z,9.80
2023-05-17T03:05:56.864Z,9.70
2023-05-17T03:08:27.902Z,9.70
2023-05-17T03:10:58.928Z,9.60
2023-05-17T03:13:30.088Z,9.60
2023-05-17T03:16:01.025Z,9.60
2023-05-17T03:18:32.272Z,9.60
2023-05-17T03:21:03.439Z,9.60
2023-05-17T03:23:34.587Z,9.60
2023-05-17T03:26:05.547Z,9.50
2023-05-17T03:28:36.744Z,9.60
2023-05-17T03:31:07.838Z,9.50
2023-05-17T03:33:39.096Z,9.50
2023-05-17T03:36:10.635Z,9.50
2023-05-17T03:38:41.979Z,9.40
2023-05-17T03:41:13.546Z,9.40
2023-05-17T03:43:44.615Z,9.40
2023-05-17T03:46:15.614Z,9.40
2023-05-17T03:48:46.732Z,9.30
2023-05-17T03:51:18.042Z,9.30
2023-05-17T03:53:49.115Z,9.30
2023-05-17T03:56:20.548Z,9.40
2023-05-17T03:58:51.930Z,9.30
2023-05-17T04:01:22.986Z,9.30
2023-05-17T04:03:54.291Z,9.30
2023-05-17T04:06:25.739Z,9.30
2023-05-17T04:08:56.986Z,9.20
2023-05-17T04:11:28.231Z,9.20
2023-05-17T04:13:59.423Z,9.20
2023-05-17T04:16:30.826Z,9.20
2023-05-17T04:19:03.024Z,9.20
2023-05-17T04:21:34.338Z,9.20
2023-05-17T04:24:05.896Z,9.10
2023-05-17T04:26:36.939Z,9.20
2023-05-17T04:29:08.186Z,9.20
2023-05-17T04:31:57.965Z,9.10
2023-05-17T04:34:40.048Z,9.10
2023-05-17T04:37:11.204Z,9.20
2023-05-17T04:39:42.199Z,9.20
2023-05-17T04:42:13.454Z,9.10
2023-05-17T04:44:44.721Z,9.10
2023-05-17T04:47:15.778Z,9.10
2023-05-17T04:49:46.864Z,9.20
2023-05-17T04:52:17.799Z,9.10
2023-05-17T04:54:48.953Z,9.10
2023-05-17T04:57:19.980Z,9.10
2023-05-17T04:59:51.010Z,9.10
2023-05-17T05:02:21.976Z,9.10
2023-05-17T05:04:53.254Z,9.00
2023-05-17T05:07:24.255Z,9.00
2023-05-17T05:09:55.267Z,9.00
2023-05-17T05:12:27.153Z,9.00
2023-05-17T05:14:59.612Z,8.90
2023-05-17T05:17:32.089Z,8.80
2023-05-17T05:20:03.720Z,8.90
2023-05-17T05:22:34.724Z,8.90
2023-05-17T05:25:07.095Z,8.80
2023-05-17T05:27:38.111Z,8.80
2023-05-17T05:30:11.781Z,8.80
2023-05-17T05:32:42.873Z,8.70
2023-05-17T05:37:51.378Z,8.80
2023-05-17T05:40:23.155Z,8.80
2023-05-17T05:42:54.478Z,8.90
2023-05-17T05:45:25.348Z,8.90
2023-05-17T05:47:56.483Z,8.80
2023-05-17T05:50:27.718Z,8.80
2023-05-17T05:53:10.908Z,8.70
2023-05-17T05:55:33.226Z,8.90
2023-05-17T05:58:06.862Z,8.90
2023-05-17T06:00:38.428Z,8.90
2023-05-17T06:03:09.751Z,8.90
2023-05-17T06:05:41.253Z,9.00
2023-05-17T06:08:12.555Z,9.20
2023-05-17T06:10:43.746Z,9.10
2023-05-17T06:13:14.989Z,9.20
2023-05-17T06:15:46.132Z,9.20
2023-05-17T06:18:17.287Z,9.10
2023-05-17T06:20:48.515Z,9.20
2023-05-17T06:23:19.694Z,9.30
2023-05-17T06:25:50.877Z,9.30
2023-05-17T06:28:21.935Z,9.40
2023-05-17T06:30:53.298Z,9.40
2023-05-17T06:33:25.338Z,9.40
2023-05-17T06:35:58.881Z,9.30
2023-05-17T06:38:31.281Z,9.50
2023-05-17T06:41:02.951Z,9.50
2023-05-17T06:43:35.809Z,9.60
2023-05-17T06:46:07.936Z,9.30
2023-05-17T06:51:18.559Z,9.50
2023-05-17T06:53:51.867Z,9.50
2023-05-17T06:56:23.324Z,9.60
2023-05-17T06:58:54.308Z,9.70
2023-05-17T07:01:26.030Z,9.90
2023-05-17T07:03:57.588Z,9.80
2023-05-17T07:06:47.246Z,10.00
2023-05-17T07:09:18.863Z,10.10
2023-05-17T07:11:52.475Z,10.10
2023-05-17T07:14:23.633Z,10.00
2023-05-17T07:16:56.647Z,10.10
2023-05-17T07:19:28.945Z,10.20
2023-05-17T07:22:00.097Z,10.30
2023-05-17T07:24:31.085Z,10.30
2023-05-17T07:27:02.121Z,10.30
2023-05-17T07:29:33.421Z,10.20
2023-05-17T07:32:05.088Z,10.40
2023-05-17T07:34:36.376Z,10.50
2023-05-17T07:37:09.480Z,10.40
2023-05-17T07:39:40.565Z,10.10
2023-05-17T07:42:11.987Z,10.30
2023-05-17T07:44:42.994Z,10.40
2023-05-17T07:47:14.003Z,10.60
2023-05-17T07:49:45.189Z,10.50
2023-05-17T07:52:16.773Z,10.30
2023-05-17T07:54:47.774Z,10.40
2023-05-17T07:59:57.137Z,10.80
2023-05-17T08:02:28.332Z,10.90
2023-05-17T08:05:00.541Z,11.20
2023-05-17T08:07:31.874Z,11.30
2023-05-17T08:10:03.024Z,11.40
2023-05-17T08:12:33.931Z,11.40
2023-05-17T08:15:05.235Z,11.50
2023-05-17T08:17:36.352Z,11.30
2023-05-17T08:20:10.095Z,11.20
2023-05-17T08:22:59.903Z,11.30
2023-05-17T08:25:31.513Z,11.20
2023-05-17T08:28:02.688Z,11.20
2023-05-17T08:30:33.790Z,11.40
2023-05-17T08:33:05.446Z,11.60
2023-05-17T08:35:37.390Z,11.70
2023-05-17T08:38:08.677Z,11.40
2023-05-17T08:40:40.282Z,11.40
2023-05-17T08:43:13.420Z,11.40
2023-05-17T08:45:44.508Z,11.50
2023-05-17T08:48:17.786Z,11.40
2023-05-17T08:50:50.903Z,11.80
2023-05-17T08:53:22.445Z,11.90
2023-05-17T08:55:55.547Z,12.10
2023-05-17T09:01:08.728Z,11.60
2023-05-17T09:03:42.562Z,11.90
2023-05-17T09:06:14.063Z,11.90
2023-05-17T09:08:46.081Z,12.10
2023-05-17T09:11:21.690Z,12.10
2023-05-17T09:13:52.716Z,12.10
2023-05-17T09:16:23.736Z,12.10
2023-05-17T09:18:58.346Z,12.40
2023-05-17T09:21:31.172Z,12.50
2023-05-17T09:24:07.096Z,12.70
2023-05-17T09:26:45.695Z,12.70
2023-05-17T09:29:17.755Z,12.80
2023-05-17T09:31:48.966Z,12.70
2023-05-17T09:34:23.760Z,12.50
2023-05-17T09:36:55.422Z,12.20
2023-05-17T09:39:27.911Z,12.30
2023-05-17T09:41:59.801Z,12.40
2023-05-17T09:44:30.974Z,12.50
2023-05-17T09:47:02.825Z,12.20
2023-05-17T09:49:33.943Z,12.40
2023-05-17T09:52:09.256Z,12.30
2023-05-17T09:54:42.215Z,12.30
2023-05-17T09:57:13.707Z,12.50
2023-05-17T09:59:46.129Z,12.50
2023-05-17T10:02:21.953Z,12.60
2023-05-17T10:04:54.063Z,12.50
2023-05-17T10:07:28.070Z,12.50
2023-05-17T10:10:00.031Z,12.50
2023-05-17T10:12:34.028Z,12.60
2023-05-17T10:15:05.946Z,12.40
2023-05-17T10:17:39.405Z,12.30
2023-05-17T10:20:13.022Z,12.20
2023-05-17T10:22:44.864Z,12.10
2023-05-17T10:25:16.929Z,12.20
2023-05-17T10:27:50.182Z,12.20
2023-05-17T10:30:22.309Z,12.20
2023-05-17T10:32:54.364Z,12.00
2023-05-17T10:35:28.396Z,11.90
2023-05-17T10:37:59.619Z,11.80
2023-05-17T10:40:32.317Z,11.80
2023-05-17T10:43:04.432Z,11.60
2023-05-17T10:45:35.829Z,11.70
2023-05-17T10:48:08.078Z,11.80
2023-05-17T10:50:47.411Z,11.90
2023-05-17T10:53:14.255Z,11.90
2023-05-17T10:55:47.039Z,12.10
2023-05-17T10:58:22.635Z,12.10
2023-05-17T11:03:34.794Z,12.30
2023-05-17T11:06:23.398Z,12.00
2023-05-17T11:09:09.181Z,12.10
2023-05-17T11:11:41.452Z,12.30
2023-05-17T11:14:14.627Z,12.60
2023-05-17T11:16:46.178Z,12.80
2023-05-17T11:19:17.193Z,13.10
2023-05-17T11:21:51.795Z,13.30
2023-05-17T11:27:07.658Z,13.40
2023-05-17T11:29:40.301Z,13.10
2023-05-17T11:32:12.954Z,13.40
2023-05-17T11:34:44.021Z,13.40
2023-05-17T11:37:16.502Z,13.40
2023-05-17T11:40:05.968Z,13.30
2023-05-17T11:42:38.268Z,13.00
2023-05-17T11:45:10.456Z,13.10
2023-05-17T11:47:43.148Z,13.20
2023-05-17T11:50:15.767Z,13.30
2023-05-17T11:52:47.658Z,13.50
2023-05-17T11:55:19.391Z,13.80
2023-05-17T11:57:50.766Z,13.90
2023-05-17T12:00:28.488Z,13.80
2023-05-17T12:03:00.352Z,13.90
2023-05-17T12:05:31.553Z,14.10
2023-05-17T12:08:02.482Z,14.50
2023-05-17T12:10:34.603Z,14.90
2023-05-17T12:13:06.170Z,15.00
2023-05-17T12:15:38.120Z,15.30
2023-05-17T12:18:09.374Z,15.60
2023-05-17T12:20:40.385Z,15.20
2023-05-17T12:23:11.544Z,14.90
2023-05-17T12:25:43.272Z,15.00
2023-05-17T12:28:20.524Z,15.30
2023-05-17T12:30:58.017Z,15.60
2023-05-17T12:33:30.312Z,15.80
2023-05-17T12:36:03.340Z,15.60
2023-05-17T12:38:36.228Z,15.50
2023-05-17T12:41:08.647Z,15.90
2023-05-17T12:43:41.279Z,15.80
2023-05-17T12:46:15.740Z,16.20
2023-05-17T12:48:47.451Z,16.10
2023-05-17T12:51:21.041Z,15.90
2023-05-17T12:53:57.167Z,15.70
2023-05-17T12:59:11.939Z,16.00
2023-05-17T13:01:45.258Z,15.80
2023-05-17T13:04:18.531Z,15.80
2023-05-17T13:06:51.102Z,16.00
2023-05-17T13:09:24.299Z,15.50
2023-05-17T13:11:56.273Z,15.50
2023-05-17T13:14:46.227Z,15.80
2023-05-17T13:17:37.400Z,15.60
2023-05-17T13:20:10.930Z,15.70
2023-05-17T13:22:47.764Z,15.20
2023-05-17T13:25:19.187Z,15.40
2023-05-17T13:27:50.221Z,15.40
2023-05-17T13:30:21.495Z,15.60
2023-05-17T13:32:52.795Z,15.20
2023-05-17T13:38:00.959Z,15.50
2023-05-17T13:40:31.972Z,15.90
2023-05-17T13:43:03.370Z,15.90
2023-05-17T13:45:34.165Z,16.10
2023-05-17T13:48:05.612Z,16.10
2023-05-17T13:50:37.132Z,15.40
2023-05-17T13:53:08.347Z,15.70
2023-05-17T13:55:39.814Z,16.00
2023-05-17T13:58:11.848Z,15.60
2023-05-17T14:00:44.409Z,15.90
2023-05-17T14:03:15.741Z,16.00
2023-05-17T14:05:48.235Z,15.30
2023-05-17T14:08:19.208Z,15.40
2023-05-17T14:10:50.074Z,15.80
2023-05-17T14:13:20.891Z,15.90
2023-05-17T14:15:51.578Z,16.10
2023-05-17T14:18:22.394Z,16.60
2023-05-17T14:20:54.966Z,16.90
2023-05-17T14:23:26.331Z,16.30
2023-05-17T14:28:37.259Z,17.00
2023-05-17T14:31:09.051Z,16.90
2023-05-17T14:33:40.467Z,16.40
2023-05-17T14:36:13.908Z,16.50
2023-05-17T14:38:43.907Z,16.80
2023-05-17T14:41:14.567Z,16.60
2023-05-17T14:43:46.668Z,16.20
2023-05-17T14:46:17.868Z,16.20
2023-05-17T14:48:49.771Z,16.40
2023-05-17T14:51:21.162Z,16.30
2023-05-17T14:53:52.833Z,16.20
2023-05-17T14:56:23.994Z,16.30
2023-05-17T14:58:55.122Z,16.50
2023-05-17T15:01:26.128Z,16.80
2023-05-17T15:03:57.843Z,16.50
2023-05-17T15:06:28.972Z,16.40
2023-05-17T15:09:01.734Z,16.10
2023-05-17T15:11:33.938Z,16.10
2023-05-17T15:14:06.957Z,16.10
2023-05-17T15:16:38.499Z,15.90
2023-05-17T15:19:10.065Z,16.50
2023-05-17T15:21:41.353Z,16.80
2023-05-17T15:24:14.334Z,16.80
2023-05-17T15:26:45.694Z,16.20
2023-05-17T15:29:16.854Z,16.10
2023-05-17T15:31:47.818Z,16.20
2023-05-17T15:34:18.919Z,16.40
2023-05-17T15:36:50.031Z,15.90
2023-05-17T15:39:21.280Z,15.60
2023-05-17T15:41:52.400Z,15.50
2023-05-17T15:44:24.555Z,15.50
2023-05-17T15:46:55.696Z,15.80
2023-05-17T15:49:27.150Z,15.80
2023-05-17T15:51:58.416Z,15.60
2023-05-17T15:54:29.616Z,15.50
2023-05-17T15:57:00.875Z,15.40
2023-05-17T15:59:32.292Z,15.30
2023-05-17T16:02:04.601Z,15.20
2023-05-17T16:04:36.032Z,15.10
2023-05-17T16:07:07.359Z,15.30
2023-05-17T16:09:38.716Z,15.10
2023-05-17T16:12:10.415Z,15.10
2023-05-17T16:14:41.513Z,15.20
2023-05-17T16:17:12.216Z,15.10
2023-05-17T16:19:42.979Z,15.20
2023-05-17T16:22:14.340Z,15.20
2023-05-17T16:24:45.059Z,15.20
2023-05-17T16:27:15.967Z,14.90
2023-05-17T16:29:46.688Z,14.80
2023-05-17T16:32:17.833Z,14.60
2023-05-17T16:34:48.509Z,14.60
2023-05-17T16:37:19.194Z,14.50
2023-05-17T16:39:50.287Z,14.40
2023-05-17T16:42:21.117Z,14.40
2023-05-17T16:44:52.309Z,14.60
2023-05-17T16:47:25.408Z,14.50
2023-05-17T16:49:56.913Z,14.50
2023-05-17T16:52:28.162Z,14.60
2023-05-17T16:55:01.179Z,14.50
2023-05-17T16:57:32.873Z,14.60
2023-05-17T17:00:04.345Z,14.50
2023-05-17T17:02:35.514Z,14.50
2023-05-17T17:05:07.862Z,14.50
2023-05-17T17:07:39.051Z,14.40
2023-05-17T17:10:12.145Z,14.40
2023-05-17T17:12:43.457Z,14.30
2023-05-17T17:15:15.818Z,14.20
2023-05-17T17:17:46.941Z,14.20
2023-05-17T17:20:18.559Z,14.20
2023-05-17T17:22:49.960Z,14.10
2023-05-17T17:25:23.890Z,14.00
2023-05-17T17:27:55.212Z,14.20
2023-05-17T17:30:29.054Z,14.20
2023-05-17T17:33:01.858Z,14.30
2023-05-17T17:35:34.068Z,14.20
2023-05-17T17:38:05.355Z,14.10
2023-05-17T17:40:37.273Z,14.20
2023-05-17T17:43:08.546Z,14.00
2023-05-17T17:45:39.537Z,14.10
2023-05-17T17:48:10.609Z,14.10
2023-05-17T17:50:41.840Z,14.00
2023-05-17T17:53:13.131Z,14.00
2023-05-17T17:55:44.296Z,14.00
2023-05-17T17:58:15.230Z,13.90
2023-05-17T18:00:46.133Z,13.80
2023-05-17T18:03:18.379Z,13.70
2023-05-17T18:05:49.330Z,13.50
2023-05-17T18:08:20.447Z,13.60
2023-05-17T18:10:51.422Z,13.60
2023-05-17T18:13:24.464Z,13.50
2023-05-17T18:15:55.490Z,13.40
2023-05-17T18:18:26.560Z,13.20
2023-05-17T18:20:57.671Z,13.30
2023-05-17T18:23:28.871Z,13.30
2023-05-17T18:25:59.958Z,13.30
2023-05-17T18:28:41.752Z,13.20
2023-05-17T18:31:03.618Z,13.20
2023-05-17T18:33:35.189Z,13.20
2023-05-17T18:36:07.418Z,13.10
2023-05-17T18:38:38.605Z,13.00
2023-05-17T18:41:09.694Z,12.90
2023-05-17T18:43:40.703Z,12.90
2023-05-17T18:46:13.248Z,12.80
2023-05-17T18:48:44.342Z,12.80
2023-05-17T18:51:15.962Z,12.80
2023-05-17T18:53:48.441Z,12.80
2023-05-17T18:56:21.097Z,12.70
2023-05-17T18:58:53.867Z,12.60
2023-05-17T19:01:24.806Z,12.60
2023-05-17T19:03:56.720Z,12.70
2023-05-17T19:06:47.743Z,12.70
2023-05-17T19:09:18.937Z,12.70
2023-05-17T19:11:50.133Z,12.80
2023-05-17T19:14:21.776Z,12.60
2023-05-17T19:16:54.739Z,12.60
2023-05-17T19:19:26.538Z,12.50
2023-05-17T19:21:57.762Z,12.70
2023-05-17T19:24:30.525Z,12.70
2023-05-17T19:27:02.271Z,12.70
2023-05-17T19:29:33.924Z,12.50
2023-05-17T19:32:07.128Z,12.60
2023-05-17T19:34:38.819Z,12.70
2023-05-17T19:37:09.760Z,12.60
2023-05-17T19:39:41.123Z,12.60
2023-05-17T19:42:12.580Z,12.60
2023-05-17T19:44:44.048Z,12.60
2023-05-17T19:47:15.594Z,12.50
2023-05-17T19:49:47.037Z,12.40
2023-05-17T19:52:18.624Z,12.50
2023-05-17T19:54:51.803Z,12.50
2023-05-17T19:57:23.857Z,12.40
2023-05-17T19:59:55.272Z,12.30
2023-05-17T20:02:29.311Z,12.30
2023-05-17T20:05:04.579Z,12.30
2023-05-17T20:07:35.775Z,12.30
2023-05-17T20:10:08.072Z,12.50
2023-05-17T20:12:40.308Z,12.50
2023-05-17T20:17:49.206Z,12.30
2023-05-17T20:20:20.937Z,12.30
2023-05-17T20:22:52.192Z,12.20
2023-05-17T20:25:23.914Z,12.20
2023-05-17T20:27:55.050Z,12.10
2023-05-17T20:30:25.988Z,12.10
2023-05-17T20:32:58.001Z,12.00
2023-05-17T20:35:29.117Z,12.00
2023-05-17T20:38:00.099Z,12.10
2023-05-17T20:40:31.604Z,12.20
2023-05-17T20:43:03.660Z,12.20
2023-05-17T20:45:35.264Z,12.10
2023-05-17T20:48:09.759Z,12.10
2023-05-17T20:50:41.253Z,12.10
2023-05-17T20:53:12.314Z,12.10
2023-05-17T20:55:44.541Z,12.20
2023-05-17T20:58:15.975Z,12.10
2023-05-17T21:00:46.878Z,12.00
2023-05-17T21:03:18.385Z,12.00
2023-05-17T21:05:49.698Z,12.00
2023-05-17T21:08:21.002Z,12.10
2023-05-17T21:10:52.168Z,12.10
2023-05-17T21:13:41.862Z,12.10
2023-05-17T21:16:13.000Z,12.10
2023-05-17T21:18:45.334Z,12.10
2023-05-17T21:21:16.481Z,12.00
2023-05-17T21:23:47.579Z,12.00
2023-05-17T21:26:18.439Z,11.90
2023-05-17T21:28:49.610Z,11.90
2023-05-17T21:31:21.717Z,11.80
2023-05-17T21:33:54.628Z,11.90
2023-05-17T21:36:25.946Z,12.00
2023-05-17T21:38:56.920Z,12.00
2023-05-17T21:41:28.273Z,11.80
2023-05-17T21:43:59.417Z,11.80
2023-05-17T21:46:30.681Z,11.80
2023-05-17T21:49:01.901Z,11.80
2023-05-17T21:51:33.021Z,11.70
2023-05-17T21:54:04.395Z,11.60
2023-05-17T21:56:35.380Z,11.70
2023-05-17T21:59:06.478Z,11.80
2023-05-17T22:01:37.560Z,11.70
2023-05-17T22:04:09.664Z,11.70
2023-05-17T22:06:40.831Z,11.70
2023-05-17T22:09:12.279Z,11.60
2023-05-17T22:11:43.456Z,11.30
2023-05-17T22:14:14.869Z,11.20
2023-05-17T22:16:45.946Z,11.20
2023-05-17T22:19:17.187Z,11.00
2023-05-17T22:21:48.284Z,11.00
2023-05-17T22:24:19.838Z,11.00
2023-05-17T22:26:50.682Z,11.00
2023-05-17T22:29:21.732Z,11.00
2023-05-17T22:31:52.777Z,11.00
2023-05-17T22:34:23.873Z,11.00
2023-05-17T22:36:55.383Z,11.20
2023-05-17T22:39:26.515Z,11.20
2023-05-17T22:41:57.481Z,11.10
2023-05-17T22:44:28.370Z,11.00
2023-05-17T22:47:01.112Z,10.80
2023-05-17T22:49:34.233Z,10.70
2023-05-17T22:52:06.894Z,10.60
2023-05-17T22:54:38.699Z,10.60
2023-05-17T22:57:09.854Z,10.70
2023-05-17T22:59:42.526Z,10.50
2023-05-17T23:02:13.822Z,10.50
2023-05-17T23:04:46.066Z,10.70
2023-05-17T23:07:17.390Z,10.60
2023-05-17T23:09:48.633Z,10.50
2023-05-17T23:12:19.824Z,10.60
2023-05-17T23:14:50.914Z,10.70
2023-05-17T23:17:21.913Z,10.70
2023-05-17T23:19:52.951Z,10.60
2023-05-17T23:22:24.091Z,10.60
2023-05-17T23:24:55.926Z,10.50
2023-05-17T23:27:27.883Z,10.60
2023-05-17T23:29:59.055Z,10.60
2023-05-17T23:32:31.855Z,10.80
2023-05-17T23:35:04.326Z,10.80
2023-05-17T23:37:36.173Z,10.80
2023-05-17T23:40:09.780Z,10.80
2023-05-17T23:42:41.475Z,10.90
2023-05-17T23:45:13.038Z,11.00
2023-05-17T23:47:44.640Z,11.00
2023-05-17T23:50:15.736Z,11.10
2023-05-17T23:52:47.768Z,11.10
2023-05-17T23:55:19.819Z,11.10
2023-05-17T23:57:51.947Z,11.20
